DAL1026 KMSP-KATL
Flight info
| Callsign | DAL1026 |
|---|---|
| Flight time | 1h 24m |
| Altitude | 35000 |
| Route | ZMBRO7 ODI J30 BRIBE/N0456F340 EDENS/N0454F350 ENL PLESS J45 BNA NEWBB IHAVE MTHEW CHPPR1 |
| Aircraft | A321/M-SDE3FGHIRWY/LB1 |
Departure
| Time | 2026-05-06 00:33 |
|---|---|
| Airport | Minneapolis–Saint Paul International Airport / Wold–Chamberlain Field (KMSP) |
Arrival
| Time | 2026-05-06 01:57 |
|---|---|
| Airport | Hartsfield Jackson Atlanta International Airport (KATL) |
| Time | Latitude | Longitude | Altitude | Speed | Heading |
|---|---|---|---|---|---|
| 2026-05-06 00:16 | 44.88315 | -93.21572 | 825 ft | 0 kts | 19° |
| 2026-05-06 00:25 | 44.88298 | -93.21581 | 822 ft | 4 kts | 27° |
| 2026-05-06 00:25 | 44.88276 | -93.21602 | 825 ft | 4 kts | 45° |
| 2026-05-06 00:25 | 44.88260 | -93.21631 | 823 ft | 4 kts | 68° |
| 2026-05-06 00:25 | 44.88254 | -93.21667 | 820 ft | 4 kts | 88° |
| 2026-05-06 00:26 | 44.88256 | -93.21705 | 821 ft | 4 kts | 105° |
| 2026-05-06 00:26 | 44.88266 | -93.21739 | 820 ft | 3 kts | 120° |
| 2026-05-06 00:26 | 44.88267 | -93.21743 | 820 ft | 0 kts | 121° |
| 2026-05-06 00:28 | 44.88254 | -93.21715 | 821 ft | 11 kts | 125° |
| 2026-05-06 00:28 | 44.88171 | -93.21604 | 825 ft | 18 kts | 139° |
| 2026-05-06 00:28 | 44.88080 | -93.21484 | 825 ft | 18 kts | 128° |
| 2026-05-06 00:29 | 44.87998 | -93.21315 | 825 ft | 23 kts | 122° |
| 2026-05-06 00:29 | 44.87919 | -93.21134 | 824 ft | 21 kts | 122° |
| 2026-05-06 00:29 | 44.87834 | -93.20938 | 826 ft | 27 kts | 121° |
| 2026-05-06 00:29 | 44.87738 | -93.20718 | 826 ft | 25 kts | 121° |
| 2026-05-06 00:30 | 44.87650 | -93.20510 | 824 ft | 24 kts | 121° |
| 2026-05-06 00:30 | 44.87586 | -93.20362 | 826 ft | 13 kts | 120° |
| 2026-05-06 00:30 | 44.87543 | -93.20258 | 826 ft | 12 kts | 120° |
| 2026-05-06 00:30 | 44.87496 | -93.20150 | 823 ft | 12 kts | 122° |
| 2026-05-06 00:31 | 44.87452 | -93.20076 | 827 ft | 8 kts | 154° |
| 2026-05-06 00:31 | 44.87411 | -93.20088 | 828 ft | 5 kts | 207° |
| 2026-05-06 00:31 | 44.87382 | -93.20111 | 828 ft | 6 kts | 217° |
| 2026-05-06 00:31 | 44.87381 | -93.20204 | 825 ft | 2 kts | 302° |
| 2026-05-06 00:32 | 44.87382 | -93.20205 | 825 ft | 1 kts | 302° |
| 2026-05-06 00:32 | 44.87407 | -93.20261 | 823 ft | 27 kts | 302° |
| 2026-05-06 00:32 | 44.87638 | -93.20781 | 825 ft | 95 kts | 301° |
| 2026-05-06 00:32 | 44.88078 | -93.21801 | 825 ft | 146 kts | 301° |
| 2026-05-06 00:33 | 44.88646 | -93.23086 | 1185 ft | 160 kts | 303° |
| 2026-05-06 00:33 | 44.89225 | -93.24433 | 1897 ft | 161 kts | 302° |
| 2026-05-06 00:33 | 44.89796 | -93.25785 | 2558 ft | 163 kts | 302° |
| 2026-05-06 00:33 | 44.90300 | -93.27290 | 2814 ft | 182 kts | 283° |
| 2026-05-06 00:34 | 44.90349 | -93.29196 | 2967 ft | 206 kts | 272° |
| 2026-05-06 00:34 | 44.90231 | -93.31345 | 3138 ft | 235 kts | 260° |
| 2026-05-06 00:34 | 44.89629 | -93.33581 | 3691 ft | 253 kts | 242° |
| 2026-05-06 00:34 | 44.88507 | -93.35548 | 4503 ft | 260 kts | 231° |
| 2026-05-06 00:35 | 44.87108 | -93.37201 | 5364 ft | 269 kts | 211° |
| 2026-05-06 00:35 | 44.85272 | -93.37855 | 6204 ft | 279 kts | 185° |
| 2026-05-06 00:35 | 44.83320 | -93.37804 | 7049 ft | 282 kts | 180° |
| 2026-05-06 00:35 | 44.81346 | -93.37647 | 7866 ft | 285 kts | 180° |
| 2026-05-06 00:36 | 44.79355 | -93.37468 | 8664 ft | 288 kts | 180° |
| 2026-05-06 00:36 | 44.77367 | -93.36913 | 9436 ft | 297 kts | 163° |
| 2026-05-06 00:36 | 44.75458 | -93.35843 | 10172 ft | 303 kts | 160° |
| 2026-05-06 00:36 | 44.73444 | -93.34631 | 10402 ft | 327 kts | 157° |
| 2026-05-06 00:37 | 44.71495 | -93.32776 | 10739 ft | 348 kts | 141° |
| 2026-05-06 00:37 | 44.69660 | -93.30505 | 11401 ft | 354 kts | 140° |
| 2026-05-06 00:37 | 44.67817 | -93.28179 | 12132 ft | 358 kts | 140° |
| 2026-05-06 00:37 | 44.66103 | -93.25606 | 12826 ft | 365 kts | 125° |
| 2026-05-06 00:38 | 44.64849 | -93.22485 | 13543 ft | 369 kts | 119° |
| 2026-05-06 00:38 | 44.63647 | -93.19280 | 14184 ft | 373 kts | 118° |
| 2026-05-06 00:38 | 44.62441 | -93.16036 | 14780 ft | 376 kts | 118° |
| 2026-05-06 00:38 | 44.61224 | -93.12765 | 15394 ft | 380 kts | 119° |
| 2026-05-06 00:39 | 44.60006 | -93.09510 | 15989 ft | 384 kts | 119° |
| 2026-05-06 00:39 | 44.58755 | -93.06183 | 16582 ft | 388 kts | 119° |
| 2026-05-06 00:39 | 44.57489 | -93.02823 | 17168 ft | 391 kts | 120° |
| 2026-05-06 00:39 | 44.56211 | -92.99428 | 17755 ft | 396 kts | 120° |
| 2026-05-06 00:40 | 44.54923 | -92.96001 | 18317 ft | 400 kts | 120° |
| 2026-05-06 00:40 | 44.53600 | -92.92493 | 18479 ft | 414 kts | 120° |
| 2026-05-06 00:40 | 44.52229 | -92.88871 | 18603 ft | 428 kts | 120° |
| 2026-05-06 00:40 | 44.50809 | -92.85133 | 18725 ft | 441 kts | 120° |
| 2026-05-06 00:41 | 44.49349 | -92.81288 | 18844 ft | 453 kts | 120° |
| 2026-05-06 00:41 | 44.47853 | -92.77354 | 19016 ft | 462 kts | 120° |
| 2026-05-06 00:41 | 44.46333 | -92.73360 | 19318 ft | 468 kts | 121° |
| 2026-05-06 00:41 | 44.44756 | -92.69345 | 19636 ft | 473 kts | 122° |
| 2026-05-06 00:42 | 44.43116 | -92.65397 | 19956 ft | 478 kts | 124° |
| 2026-05-06 00:42 | 44.41387 | -92.61403 | 20263 ft | 483 kts | 126° |
| 2026-05-06 00:42 | 44.39614 | -92.57385 | 20565 ft | 488 kts | 126° |
| 2026-05-06 00:42 | 44.37821 | -92.53322 | 20792 ft | 494 kts | 126° |
| 2026-05-06 00:43 | 44.36017 | -92.49203 | 21098 ft | 500 kts | 126° |
| 2026-05-06 00:43 | 44.34205 | -92.45034 | 21406 ft | 505 kts | 126° |
| 2026-05-06 00:43 | 44.32388 | -92.40809 | 21710 ft | 510 kts | 126° |
| 2026-05-06 00:43 | 44.30557 | -92.36537 | 22006 ft | 515 kts | 127° |
| 2026-05-06 00:44 | 44.28713 | -92.32236 | 22303 ft | 519 kts | 127° |
| 2026-05-06 00:44 | 44.26847 | -92.27891 | 22581 ft | 524 kts | 127° |
| 2026-05-06 00:44 | 44.24984 | -92.23578 | 22843 ft | 528 kts | 128° |
| 2026-05-06 00:44 | 44.23073 | -92.19173 | 23122 ft | 533 kts | 128° |
| 2026-05-06 00:45 | 44.21144 | -92.14737 | 23402 ft | 537 kts | 128° |
| 2026-05-06 00:45 | 44.19201 | -92.10276 | 23643 ft | 540 kts | 128° |
| 2026-05-06 00:45 | 44.17250 | -92.05800 | 23960 ft | 542 kts | 128° |
| 2026-05-06 00:45 | 44.15285 | -92.01305 | 24265 ft | 544 kts | 128° |
| 2026-05-06 00:46 | 44.13315 | -91.96800 | 24590 ft | 546 kts | 128° |
| 2026-05-06 00:46 | 44.11340 | -91.92285 | 24906 ft | 547 kts | 128° |
| 2026-05-06 00:46 | 44.09381 | -91.87815 | 25203 ft | 549 kts | 129° |
| 2026-05-06 00:46 | 44.07385 | -91.83269 | 25480 ft | 550 kts | 129° |
| 2026-05-06 00:47 | 44.05396 | -91.78739 | 25873 ft | 549 kts | 129° |
| 2026-05-06 00:47 | 44.03408 | -91.74214 | 26280 ft | 548 kts | 129° |
| 2026-05-06 00:47 | 44.01423 | -91.69707 | 26634 ft | 546 kts | 129° |
| 2026-05-06 00:47 | 43.99443 | -91.65231 | 27140 ft | 541 kts | 129° |
| 2026-05-06 00:48 | 43.97479 | -91.60796 | 27621 ft | 538 kts | 130° |
| 2026-05-06 00:48 | 43.95520 | -91.56379 | 28047 ft | 536 kts | 130° |
| 2026-05-06 00:48 | 43.93567 | -91.51985 | 28465 ft | 534 kts | 130° |
| 2026-05-06 00:48 | 43.91568 | -91.47765 | 28868 ft | 526 kts | 136° |
| 2026-05-06 00:49 | 43.89249 | -91.43925 | 29271 ft | 513 kts | 144° |
| 2026-05-06 00:49 | 43.86761 | -91.40420 | 29659 ft | 510 kts | 145° |
| 2026-05-06 00:49 | 43.84272 | -91.36933 | 30047 ft | 508 kts | 146° |
| 2026-05-06 00:49 | 43.81790 | -91.33459 | 30323 ft | 507 kts | 145° |
| 2026-05-06 00:50 | 43.79315 | -91.29996 | 30694 ft | 504 kts | 145° |
| 2026-05-06 00:50 | 43.76849 | -91.26545 | 31007 ft | 504 kts | 145° |
| 2026-05-06 00:50 | 43.74382 | -91.23099 | 31280 ft | 505 kts | 145° |
| 2026-05-06 00:50 | 43.71907 | -91.19651 | 31541 ft | 506 kts | 145° |
| 2026-05-06 00:51 | 43.69426 | -91.16197 | 31802 ft | 507 kts | 145° |
| 2026-05-06 00:51 | 43.66971 | -91.12781 | 32047 ft | 508 kts | 145° |
| 2026-05-06 00:51 | 43.64481 | -91.09317 | 32304 ft | 509 kts | 145° |
| 2026-05-06 00:51 | 43.61980 | -91.05840 | 32519 ft | 510 kts | 146° |
| 2026-05-06 00:52 | 43.59479 | -91.02364 | 32760 ft | 512 kts | 146° |
| 2026-05-06 00:52 | 43.56968 | -90.98880 | 33001 ft | 513 kts | 146° |
| 2026-05-06 00:52 | 43.54448 | -90.95394 | 33253 ft | 514 kts | 146° |
| 2026-05-06 00:52 | 43.51918 | -90.91899 | 33503 ft | 515 kts | 146° |
| 2026-05-06 00:53 | 43.49387 | -90.88402 | 33746 ft | 516 kts | 146° |
| 2026-05-06 00:53 | 43.46848 | -90.84898 | 33975 ft | 518 kts | 146° |
| 2026-05-06 00:53 | 43.44300 | -90.81388 | 34182 ft | 518 kts | 146° |
| 2026-05-06 00:53 | 43.41752 | -90.77884 | 34371 ft | 518 kts | 147° |
| 2026-05-06 00:54 | 43.39231 | -90.74422 | 34549 ft | 520 kts | 147° |
| 2026-05-06 00:54 | 43.36667 | -90.70910 | 34732 ft | 521 kts | 146° |
| 2026-05-06 00:54 | 43.34005 | -90.67622 | 34882 ft | 505 kts | 157° |
| 2026-05-06 00:54 | 43.31038 | -90.65265 | 34924 ft | 482 kts | 171° |
| 2026-05-06 00:55 | 43.27913 | -90.63917 | 34919 ft | 463 kts | 182° |
| 2026-05-06 00:55 | 43.21582 | -90.62143 | 34880 ft | 465 kts | 183° |
| 2026-05-06 00:56 | 43.15236 | -90.60370 | 34921 ft | 466 kts | 183° |
| 2026-05-06 00:56 | 43.08926 | -90.58592 | 34918 ft | 466 kts | 183° |
| 2026-05-06 00:57 | 42.98749 | -90.55721 | 34882 ft | 464 kts | 183° |
| 2026-05-06 00:57 | 42.86106 | -90.52178 | 34900 ft | 464 kts | 184° |
| 2026-05-06 00:58 | 42.73466 | -90.48664 | 34909 ft | 463 kts | 184° |
| 2026-05-06 00:58 | 42.52452 | -90.42839 | 34889 ft | 463 kts | 184° |
| 2026-05-06 00:59 | 42.27186 | -90.35895 | 34901 ft | 466 kts | 184° |
| 2026-05-06 00:59 | 42.01828 | -90.29006 | 35002 ft | 461 kts | 184° |
| 2026-05-06 01:00 | 41.76422 | -90.22128 | 34845 ft | 469 kts | 184° |
| 2026-05-06 01:00 | 41.50952 | -90.15313 | 34802 ft | 469 kts | 184° |
| 2026-05-06 01:01 | 41.25588 | -90.08559 | 35024 ft | 467 kts | 184° |
| 2026-05-06 01:01 | 40.99892 | -90.00947 | 34838 ft | 486 kts | 179° |
| 2026-05-06 01:02 | 40.73900 | -89.91988 | 34788 ft | 483 kts | 180° |
| 2026-05-06 01:02 | 40.60883 | -89.87554 | 34930 ft | 479 kts | 180° |
| 2026-05-06 01:02 | 40.48151 | -89.83227 | 35024 ft | 470 kts | 180° |
| 2026-05-06 01:02 | 40.35423 | -89.78969 | 34901 ft | 475 kts | 180° |
| 2026-05-06 01:03 | 40.22683 | -89.74699 | 34767 ft | 476 kts | 180° |
| 2026-05-06 01:03 | 39.97434 | -89.66288 | 34920 ft | 467 kts | 180° |
| 2026-05-06 01:03 | 39.84760 | -89.62103 | 35031 ft | 467 kts | 180° |
| 2026-05-06 01:04 | 39.72068 | -89.57898 | 35016 ft | 470 kts | 180° |
| 2026-05-06 01:04 | 39.59322 | -89.53724 | 34910 ft | 476 kts | 180° |
| 2026-05-06 01:04 | 39.46556 | -89.49547 | 34821 ft | 476 kts | 179° |
| 2026-05-06 01:05 | 39.21088 | -89.41268 | 34948 ft | 469 kts | 179° |
| 2026-05-06 01:05 | 38.95632 | -89.33034 | 34935 ft | 474 kts | 179° |
| 2026-05-06 01:06 | 38.69937 | -89.24788 | 34937 ft | 479 kts | 179° |
| 2026-05-06 01:06 | 38.44004 | -89.16538 | 34922 ft | 481 kts | 179° |
| 2026-05-06 01:07 | 38.18177 | -89.08210 | 34845 ft | 481 kts | 179° |
| 2026-05-06 01:07 | 37.92205 | -88.99896 | 34859 ft | 481 kts | 179° |
| 2026-05-06 01:07 | 37.79517 | -88.93595 | 34871 ft | 523 kts | 152° |
| 2026-05-06 01:08 | 37.69307 | -88.79819 | 34827 ft | 540 kts | 141° |
| 2026-05-06 01:08 | 37.63131 | -88.71277 | 34857 ft | 543 kts | 141° |
| 2026-05-06 01:09 | 37.58039 | -88.64191 | 34827 ft | 547 kts | 140° |
| 2026-05-06 01:09 | 37.52926 | -88.57039 | 34830 ft | 550 kts | 140° |
| 2026-05-06 01:10 | 37.47824 | -88.49915 | 34826 ft | 552 kts | 140° |
| 2026-05-06 01:10 | 37.42660 | -88.42735 | 34837 ft | 556 kts | 140° |
| 2026-05-06 01:11 | 37.37459 | -88.35525 | 34846 ft | 557 kts | 140° |
| 2026-05-06 01:11 | 37.32251 | -88.28312 | 34846 ft | 557 kts | 140° |
| 2026-05-06 01:12 | 37.27044 | -88.21127 | 34847 ft | 556 kts | 140° |
| 2026-05-06 01:12 | 37.21828 | -88.13942 | 34801 ft | 556 kts | 140° |
| 2026-05-06 01:13 | 37.16613 | -88.06781 | 34806 ft | 556 kts | 140° |
| 2026-05-06 01:13 | 37.11426 | -87.99668 | 34813 ft | 557 kts | 140° |
| 2026-05-06 01:14 | 37.03585 | -87.88929 | 34826 ft | 557 kts | 140° |
| 2026-05-06 01:14 | 36.98346 | -87.81788 | 34829 ft | 557 kts | 140° |
| 2026-05-06 01:15 | 36.93095 | -87.74656 | 34815 ft | 557 kts | 140° |
| 2026-05-06 01:15 | 36.87844 | -87.67529 | 34834 ft | 558 kts | 140° |
| 2026-05-06 01:16 | 36.82627 | -87.60444 | 34839 ft | 558 kts | 140° |
| 2026-05-06 01:16 | 36.77359 | -87.53322 | 34839 ft | 558 kts | 140° |
| 2026-05-06 01:17 | 36.72945 | -87.47377 | 34820 ft | 558 kts | 140° |
| 2026-05-06 01:17 | 36.67712 | -87.40330 | 34826 ft | 558 kts | 140° |
| 2026-05-06 01:18 | 36.62436 | -87.33240 | 34829 ft | 558 kts | 140° |
| 2026-05-06 01:18 | 36.57154 | -87.26154 | 34832 ft | 559 kts | 140° |
| 2026-05-06 01:19 | 36.51859 | -87.19074 | 34847 ft | 559 kts | 140° |
| 2026-05-06 01:19 | 36.46549 | -87.11991 | 34823 ft | 560 kts | 139° |
| 2026-05-06 01:20 | 36.41271 | -87.04961 | 34838 ft | 561 kts | 139° |
| 2026-05-06 01:20 | 36.35945 | -86.97880 | 34846 ft | 561 kts | 139° |
| 2026-05-06 01:21 | 36.30606 | -86.90805 | 34853 ft | 562 kts | 139° |
| 2026-05-06 01:21 | 36.25261 | -86.83735 | 34858 ft | 562 kts | 139° |
| 2026-05-06 01:22 | 36.19919 | -86.76673 | 34827 ft | 562 kts | 139° |
| 2026-05-06 01:22 | 36.14452 | -86.69787 | 34870 ft | 556 kts | 147° |
| 2026-05-06 01:23 | 36.08144 | -86.64538 | 34881 ft | 542 kts | 159° |
| 2026-05-06 01:23 | 36.01625 | -86.59965 | 34895 ft | 543 kts | 159° |
| 2026-05-06 01:24 | 35.95054 | -86.55343 | 34895 ft | 544 kts | 159° |
| 2026-05-06 01:24 | 35.88479 | -86.50729 | 34878 ft | 544 kts | 159° |
| 2026-05-06 01:25 | 35.81897 | -86.46116 | 34893 ft | 545 kts | 159° |
| 2026-05-06 01:25 | 35.75307 | -86.41505 | 34906 ft | 545 kts | 159° |
| 2026-05-06 01:26 | 35.68821 | -86.36951 | 34420 ft | 535 kts | 158° |
| 2026-05-06 01:26 | 35.65597 | -86.34658 | 33781 ft | 535 kts | 158° |
| 2026-05-06 01:26 | 35.62381 | -86.32364 | 33150 ft | 533 kts | 158° |
| 2026-05-06 01:27 | 35.59181 | -86.30080 | 32901 ft | 531 kts | 157° |
| 2026-05-06 01:27 | 35.55993 | -86.27810 | 32916 ft | 530 kts | 158° |
| 2026-05-06 01:27 | 35.49526 | -86.23245 | 32898 ft | 541 kts | 158° |
| 2026-05-06 01:28 | 35.43005 | -86.18578 | 32870 ft | 547 kts | 152° |
| 2026-05-06 01:28 | 35.36964 | -86.12795 | 32907 ft | 547 kts | 147° |
| 2026-05-06 01:29 | 35.31081 | -86.07061 | 32932 ft | 542 kts | 147° |
| 2026-05-06 01:29 | 35.25168 | -86.01344 | 32639 ft | 539 kts | 148° |
| 2026-05-06 01:30 | 35.22228 | -85.98520 | 32375 ft | 536 kts | 148° |
| 2026-05-06 01:30 | 35.19302 | -85.95721 | 32138 ft | 532 kts | 148° |
| 2026-05-06 01:30 | 35.16397 | -85.92949 | 31859 ft | 529 kts | 148° |
| 2026-05-06 01:30 | 35.13501 | -85.90190 | 31607 ft | 527 kts | 148° |
| 2026-05-06 01:31 | 35.10621 | -85.87442 | 31368 ft | 523 kts | 147° |
| 2026-05-06 01:31 | 35.07764 | -85.84716 | 31129 ft | 520 kts | 147° |
| 2026-05-06 01:31 | 35.04926 | -85.82008 | 30841 ft | 515 kts | 148° |
| 2026-05-06 01:31 | 35.02147 | -85.79364 | 30259 ft | 513 kts | 147° |
| 2026-05-06 01:32 | 34.99342 | -85.76698 | 29639 ft | 509 kts | 147° |
| 2026-05-06 01:32 | 34.96560 | -85.74054 | 29088 ft | 505 kts | 147° |
| 2026-05-06 01:32 | 34.93805 | -85.71434 | 28540 ft | 500 kts | 147° |
| 2026-05-06 01:32 | 34.91078 | -85.68845 | 27967 ft | 495 kts | 147° |
| 2026-05-06 01:33 | 34.88373 | -85.66281 | 27450 ft | 490 kts | 147° |
| 2026-05-06 01:33 | 34.85690 | -85.63737 | 26914 ft | 487 kts | 147° |
| 2026-05-06 01:33 | 34.83029 | -85.61218 | 26390 ft | 483 kts | 147° |
| 2026-05-06 01:33 | 34.80385 | -85.58722 | 25860 ft | 479 kts | 147° |
| 2026-05-06 01:34 | 34.77759 | -85.56246 | 25353 ft | 475 kts | 147° |
| 2026-05-06 01:34 | 34.75158 | -85.53790 | 24843 ft | 471 kts | 147° |
| 2026-05-06 01:34 | 34.72619 | -85.51387 | 24367 ft | 467 kts | 147° |
| 2026-05-06 01:34 | 34.70067 | -85.48973 | 23882 ft | 463 kts | 147° |
| 2026-05-06 01:35 | 34.67538 | -85.46585 | 23406 ft | 458 kts | 146° |
| 2026-05-06 01:35 | 34.65044 | -85.44237 | 22930 ft | 450 kts | 147° |
| 2026-05-06 01:35 | 34.62586 | -85.41925 | 22488 ft | 443 kts | 147° |
| 2026-05-06 01:35 | 34.60171 | -85.39649 | 22060 ft | 436 kts | 147° |
| 2026-05-06 01:36 | 34.57795 | -85.37411 | 21631 ft | 430 kts | 147° |
| 2026-05-06 01:36 | 34.55449 | -85.35208 | 21191 ft | 424 kts | 147° |
| 2026-05-06 01:36 | 34.53131 | -85.33032 | 20776 ft | 419 kts | 147° |
| 2026-05-06 01:36 | 34.50839 | -85.30882 | 20343 ft | 415 kts | 147° |
| 2026-05-06 01:37 | 34.48570 | -85.28759 | 19911 ft | 409 kts | 147° |
| 2026-05-06 01:37 | 34.46326 | -85.26659 | 19476 ft | 406 kts | 147° |
| 2026-05-06 01:37 | 34.44100 | -85.24578 | 19046 ft | 403 kts | 147° |
| 2026-05-06 01:37 | 34.41888 | -85.22509 | 18608 ft | 401 kts | 147° |
| 2026-05-06 01:38 | 34.39717 | -85.20475 | 18154 ft | 399 kts | 147° |
| 2026-05-06 01:38 | 34.37526 | -85.18426 | 17655 ft | 396 kts | 147° |
| 2026-05-06 01:38 | 34.35358 | -85.16404 | 17236 ft | 391 kts | 147° |
| 2026-05-06 01:38 | 34.33211 | -85.14399 | 16808 ft | 388 kts | 147° |
| 2026-05-06 01:39 | 34.31087 | -85.12416 | 16385 ft | 384 kts | 147° |
| 2026-05-06 01:39 | 34.28979 | -85.10450 | 15956 ft | 381 kts | 147° |
| 2026-05-06 01:39 | 34.26890 | -85.08499 | 15533 ft | 378 kts | 147° |
| 2026-05-06 01:39 | 34.24820 | -85.06566 | 15117 ft | 375 kts | 146° |
| 2026-05-06 01:40 | 34.22786 | -85.04676 | 14710 ft | 372 kts | 146° |
| 2026-05-06 01:40 | 34.20738 | -85.02774 | 14319 ft | 370 kts | 146° |
| 2026-05-06 01:40 | 34.18699 | -85.00882 | 13903 ft | 369 kts | 146° |
| 2026-05-06 01:40 | 34.16671 | -84.99001 | 13450 ft | 367 kts | 146° |
| 2026-05-06 01:41 | 34.14656 | -84.97130 | 13037 ft | 364 kts | 146° |
| 2026-05-06 01:41 | 34.10381 | -84.93116 | 12615 ft | 363 kts | 146° |
| 2026-05-06 01:41 | 34.08399 | -84.91238 | 12457 ft | 362 kts | 146° |
| 2026-05-06 01:42 | 34.06423 | -84.89361 | 12282 ft | 361 kts | 145° |
| 2026-05-06 01:42 | 34.04602 | -84.87290 | 11973 ft | 361 kts | 134° |
| 2026-05-06 01:42 | 34.02966 | -84.85007 | 11541 ft | 359 kts | 134° |
| 2026-05-06 01:42 | 34.01352 | -84.82733 | 11128 ft | 356 kts | 134° |
| 2026-05-06 01:43 | 33.99750 | -84.80470 | 10973 ft | 354 kts | 134° |
| 2026-05-06 01:43 | 33.98171 | -84.78240 | 10981 ft | 355 kts | 134° |
| 2026-05-06 01:43 | 33.96567 | -84.75979 | 11002 ft | 355 kts | 134° |
| 2026-05-06 01:43 | 33.94960 | -84.73720 | 11000 ft | 355 kts | 134° |
| 2026-05-06 01:44 | 33.93351 | -84.71465 | 11002 ft | 355 kts | 134° |
| 2026-05-06 01:44 | 33.91741 | -84.69213 | 11006 ft | 355 kts | 134° |
| 2026-05-06 01:44 | 33.90131 | -84.66965 | 11005 ft | 355 kts | 134° |
| 2026-05-06 01:44 | 33.88520 | -84.64714 | 10980 ft | 355 kts | 134° |
| 2026-05-06 01:45 | 33.86909 | -84.62461 | 10987 ft | 355 kts | 134° |
| 2026-05-06 01:45 | 33.85300 | -84.60206 | 10986 ft | 355 kts | 134° |
| 2026-05-06 01:45 | 33.83687 | -84.57949 | 10999 ft | 356 kts | 134° |
| 2026-05-06 01:45 | 33.82076 | -84.55697 | 11008 ft | 355 kts | 134° |
| 2026-05-06 01:46 | 33.80461 | -84.53447 | 11000 ft | 355 kts | 134° |
| 2026-05-06 01:46 | 33.78872 | -84.51235 | 10993 ft | 355 kts | 134° |
| 2026-05-06 01:46 | 33.77258 | -84.48989 | 11002 ft | 355 kts | 134° |
| 2026-05-06 01:46 | 33.75674 | -84.46712 | 11002 ft | 356 kts | 129° |
| 2026-05-06 01:47 | 33.74419 | -84.44137 | 11010 ft | 360 kts | 116° |
| 2026-05-06 01:47 | 33.73605 | -84.41293 | 10900 ft | 359 kts | 104° |
| 2026-05-06 01:47 | 33.73276 | -84.38326 | 10456 ft | 359 kts | 91° |
| 2026-05-06 01:47 | 33.73281 | -84.35339 | 10033 ft | 357 kts | 90° |
| 2026-05-06 01:48 | 33.73291 | -84.32395 | 9842 ft | 346 kts | 91° |
| 2026-05-06 01:48 | 33.73295 | -84.29551 | 9707 ft | 335 kts | 91° |
| 2026-05-06 01:48 | 33.73300 | -84.26802 | 9551 ft | 324 kts | 90° |
| 2026-05-06 01:48 | 33.73305 | -84.24120 | 9253 ft | 319 kts | 90° |
| 2026-05-06 01:49 | 33.73309 | -84.21467 | 8903 ft | 316 kts | 91° |
| 2026-05-06 01:49 | 33.73312 | -84.18873 | 8562 ft | 313 kts | 91° |
| 2026-05-06 01:49 | 33.73314 | -84.16268 | 8217 ft | 310 kts | 91° |
| 2026-05-06 01:49 | 33.73313 | -84.13684 | 7865 ft | 308 kts | 91° |
| 2026-05-06 01:50 | 33.73305 | -84.11122 | 7512 ft | 306 kts | 92° |
| 2026-05-06 01:50 | 33.73201 | -84.08603 | 7277 ft | 295 kts | 105° |
| 2026-05-06 01:50 | 33.72383 | -84.06462 | 7163 ft | 273 kts | 135° |
| 2026-05-06 01:50 | 33.70961 | -84.05126 | 7034 ft | 250 kts | 162° |
| 2026-05-06 01:51 | 33.69344 | -84.04684 | 6878 ft | 232 kts | 186° |
| 2026-05-06 01:51 | 33.67806 | -84.05037 | 6610 ft | 222 kts | 208° |
| 2026-05-06 01:51 | 33.66582 | -84.06089 | 6307 ft | 216 kts | 232° |
| 2026-05-06 01:51 | 33.65905 | -84.07678 | 5978 ft | 216 kts | 255° |
| 2026-05-06 01:52 | 33.65578 | -84.09447 | 5615 ft | 218 kts | 255° |
| 2026-05-06 01:52 | 33.65258 | -84.11208 | 5293 ft | 219 kts | 255° |
| 2026-05-06 01:52 | 33.65007 | -84.13021 | 4981 ft | 221 kts | 262° |
| 2026-05-06 01:52 | 33.64944 | -84.14859 | 4885 ft | 221 kts | 264° |
| 2026-05-06 01:53 | 33.64926 | -84.16728 | 4786 ft | 225 kts | 266° |
| 2026-05-06 01:53 | 33.64936 | -84.18574 | 4583 ft | 216 kts | 266° |
| 2026-05-06 01:53 | 33.64941 | -84.20369 | 4284 ft | 213 kts | 266° |
| 2026-05-06 01:53 | 33.64947 | -84.22133 | 3993 ft | 209 kts | 265° |
| 2026-05-06 01:54 | 33.64949 | -84.23860 | 3726 ft | 205 kts | 265° |
| 2026-05-06 01:54 | 33.64947 | -84.25554 | 3463 ft | 201 kts | 265° |
| 2026-05-06 01:54 | 33.64946 | -84.27223 | 3202 ft | 199 kts | 265° |
| 2026-05-06 01:54 | 33.64944 | -84.28882 | 2924 ft | 199 kts | 266° |
| 2026-05-06 01:55 | 33.64955 | -84.30521 | 2718 ft | 192 kts | 265° |
| 2026-05-06 01:55 | 33.64958 | -84.32073 | 2499 ft | 181 kts | 264° |
| 2026-05-06 01:55 | 33.64957 | -84.33554 | 2231 ft | 173 kts | 264° |
| 2026-05-06 01:55 | 33.64959 | -84.34906 | 2045 ft | 157 kts | 264° |
| 2026-05-06 01:56 | 33.64957 | -84.36177 | 1789 ft | 149 kts | 263° |
| 2026-05-06 01:56 | 33.64955 | -84.37419 | 1616 ft | 149 kts | 265° |
| 2026-05-06 01:56 | 33.64956 | -84.38661 | 1412 ft | 149 kts | 268° |
| 2026-05-06 01:56 | 33.64955 | -84.39906 | 1220 ft | 150 kts | 267° |
| 2026-05-06 01:57 | 33.64955 | -84.41149 | 1036 ft | 148 kts | 268° |
| 2026-05-06 01:57 | 33.64955 | -84.42316 | 1007 ft | 123 kts | 270° |
| 2026-05-06 01:57 | 33.64954 | -84.43100 | 1006 ft | 67 kts | 270° |
| 2026-05-06 01:57 | 33.64953 | -84.43463 | 1006 ft | 28 kts | 270° |
| 2026-05-06 01:58 | 33.64954 | -84.43655 | 1007 ft | 15 kts | 270° |
| 2026-05-06 01:58 | 33.64923 | -84.43732 | 1007 ft | 10 kts | 205° |
| 2026-05-06 01:58 | 33.64860 | -84.43758 | 1006 ft | 9 kts | 216° |
| 2026-05-06 01:58 | 33.64818 | -84.43816 | 1006 ft | 9 kts | 217° |
| 2026-05-06 01:59 | 33.64762 | -84.43826 | 1006 ft | 8 kts | 173° |
| 2026-05-06 01:59 | 33.64706 | -84.43821 | 1006 ft | 8 kts | 179° |
| 2026-05-06 01:59 | 33.64627 | -84.43821 | 1006 ft | 10 kts | 180° |
| 2026-05-06 01:59 | 33.64557 | -84.43821 | 1006 ft | 10 kts | 180° |
| 2026-05-06 02:00 | 33.64492 | -84.43821 | 1006 ft | 9 kts | 175° |
| 2026-05-06 02:00 | 33.64437 | -84.43795 | 1006 ft | 8 kts | 157° |
| 2026-05-06 02:00 | 33.64384 | -84.43787 | 1006 ft | 8 kts | 178° |
| 2026-05-06 02:00 | 33.64334 | -84.43787 | 1006 ft | 7 kts | 184° |
| 2026-05-06 02:01 | 33.64306 | -84.43820 | 1006 ft | 5 kts | 256° |
| 2026-05-06 02:01 | 33.64305 | -84.43856 | 1006 ft | 3 kts | 269° |
| 2026-05-06 02:01 | 33.64305 | -84.43868 | 1006 ft | 0 kts | 270° |